EWG4PC EHRD-EDLW
Flight info
| Callsign | EWG4PC |
|---|---|
| Flight time | 0h 40m |
| Altitude | 21000 |
| Route | ARNEM L620 SONEB Z841 DOMEG DOMEG2A |
| Aircraft | A320/M-SDE3FGHIRWY/LB1 |
Departure
| Time | 2026-04-27 14:07 |
|---|---|
| Airport | Rotterdam The Hague Airport (EHRD) |
Arrival
| Time | 2026-04-27 14:47 |
|---|---|
| Airport | Dortmund Airport (EDLW) |
| Time | Latitude | Longitude | Altitude | Speed | Heading |
|---|---|---|---|---|---|
| 2026-04-27 13:51 | 51.95020 | 4.43501 | 1 ft | 0 kts | 326° |
| 2026-04-27 14:03 | 51.95040 | 4.43480 | 2 ft | 4 kts | 332° |
| 2026-04-27 14:03 | 51.95058 | 4.43493 | 1 ft | 3 kts | 48° |
| 2026-04-27 14:03 | 51.95092 | 4.43579 | 1 ft | 14 kts | 57° |
| 2026-04-27 14:04 | 51.95159 | 4.43599 | 1 ft | 13 kts | 328° |
| 2026-04-27 14:04 | 51.95234 | 4.43521 | 1 ft | 9 kts | 327° |
| 2026-04-27 14:04 | 51.95260 | 4.43437 | 1 ft | 9 kts | 242° |
| 2026-04-27 14:04 | 51.95225 | 4.43355 | 1 ft | 10 kts | 237° |
| 2026-04-27 14:05 | 51.95173 | 4.43226 | 1 ft | 17 kts | 238° |
| 2026-04-27 14:05 | 51.95126 | 4.43078 | 1 ft | 13 kts | 245° |
| 2026-04-27 14:05 | 51.95123 | 4.42941 | 2 ft | 13 kts | 307° |
| 2026-04-27 14:05 | 51.95191 | 4.42870 | 2 ft | 7 kts | 326° |
| 2026-04-27 14:06 | 51.95226 | 4.42871 | 2 ft | 5 kts | 50° |
| 2026-04-27 14:06 | 51.95228 | 4.42876 | 4 ft | 0 kts | 52° |
| 2026-04-27 14:06 | 51.95238 | 4.42897 | 3 ft | 14 kts | 53° |
| 2026-04-27 14:06 | 51.95462 | 4.43450 | 0 ft | 96 kts | 57° |
| 2026-04-27 14:07 | 51.95932 | 4.44635 | 30 ft | 150 kts | 54° |
| 2026-04-27 14:07 | 51.96494 | 4.46089 | 693 ft | 152 kts | 55° |
| 2026-04-27 14:07 | 51.97043 | 4.47573 | 1471 ft | 158 kts | 57° |
| 2026-04-27 14:07 | 51.97643 | 4.49203 | 1967 ft | 180 kts | 58° |
| 2026-04-27 14:08 | 51.98328 | 4.51054 | 2418 ft | 205 kts | 58° |
| 2026-04-27 14:08 | 51.99087 | 4.53175 | 3070 ft | 230 kts | 62° |
| 2026-04-27 14:08 | 51.99825 | 4.55615 | 3738 ft | 250 kts | 61° |
| 2026-04-27 14:08 | 52.00968 | 4.57799 | 4637 ft | 258 kts | 34° |
| 2026-04-27 14:09 | 52.02602 | 4.59067 | 5102 ft | 262 kts | 20° |
| 2026-04-27 14:09 | 52.04279 | 4.60202 | 5369 ft | 263 kts | 30° |
| 2026-04-27 14:09 | 52.05736 | 4.62023 | 6391 ft | 266 kts | 44° |
| 2026-04-27 14:09 | 52.06994 | 4.64219 | 7362 ft | 271 kts | 46° |
| 2026-04-27 14:10 | 52.08147 | 4.66677 | 8234 ft | 279 kts | 63° |
| 2026-04-27 14:10 | 52.08613 | 4.69757 | 9081 ft | 288 kts | 90° |
| 2026-04-27 14:10 | 52.08341 | 4.73024 | 9987 ft | 294 kts | 100° |
| 2026-04-27 14:10 | 52.07955 | 4.76358 | 10632 ft | 310 kts | 101° |
| 2026-04-27 14:11 | 52.07675 | 4.79963 | 10966 ft | 334 kts | 92° |
| 2026-04-27 14:11 | 52.07589 | 4.83857 | 11365 ft | 353 kts | 92° |
| 2026-04-27 14:11 | 52.07511 | 4.87898 | 12072 ft | 361 kts | 92° |
| 2026-04-27 14:11 | 52.07437 | 4.92007 | 12845 ft | 366 kts | 92° |
| 2026-04-27 14:12 | 52.07364 | 4.96116 | 13578 ft | 372 kts | 92° |
| 2026-04-27 14:12 | 52.07285 | 5.00399 | 14293 ft | 378 kts | 92° |
| 2026-04-27 14:12 | 52.07199 | 5.04642 | 14951 ft | 382 kts | 92° |
| 2026-04-27 14:12 | 52.07104 | 5.08978 | 15613 ft | 387 kts | 92° |
| 2026-04-27 14:13 | 52.07005 | 5.13371 | 16277 ft | 391 kts | 92° |
| 2026-04-27 14:13 | 52.06906 | 5.17776 | 16918 ft | 396 kts | 92° |
| 2026-04-27 14:13 | 52.06806 | 5.22286 | 17560 ft | 401 kts | 92° |
| 2026-04-27 14:13 | 52.06704 | 5.26847 | 18195 ft | 406 kts | 92° |
| 2026-04-27 14:14 | 52.06603 | 5.31459 | 18793 ft | 411 kts | 92° |
| 2026-04-27 14:14 | 52.06499 | 5.36062 | 19360 ft | 415 kts | 92° |
| 2026-04-27 14:14 | 52.06388 | 5.40776 | 19946 ft | 419 kts | 92° |
| 2026-04-27 14:14 | 52.06273 | 5.45527 | 20521 ft | 423 kts | 92° |
| 2026-04-27 14:15 | 52.06153 | 5.50318 | 21052 ft | 427 kts | 92° |
| 2026-04-27 14:15 | 52.05841 | 5.55123 | 21233 ft | 428 kts | 101° |
| 2026-04-27 14:15 | 52.05298 | 5.59973 | 21282 ft | 442 kts | 101° |
| 2026-04-27 14:15 | 52.04703 | 5.64889 | 21270 ft | 445 kts | 105° |
| 2026-04-27 14:16 | 52.03483 | 5.69476 | 21285 ft | 443 kts | 121° |
| 2026-04-27 14:16 | 52.01948 | 5.73828 | 21267 ft | 444 kts | 122° |
| 2026-04-27 14:16 | 52.00433 | 5.78116 | 21269 ft | 444 kts | 122° |
| 2026-04-27 14:16 | 51.98894 | 5.82467 | 21276 ft | 444 kts | 122° |
| 2026-04-27 14:17 | 51.97357 | 5.86813 | 21277 ft | 445 kts | 122° |
| 2026-04-27 14:17 | 51.95814 | 5.91168 | 21276 ft | 445 kts | 122° |
| 2026-04-27 14:17 | 51.94393 | 5.95615 | 21262 ft | 447 kts | 112° |
| 2026-04-27 14:17 | 51.93623 | 6.00488 | 21262 ft | 448 kts | 100° |
| 2026-04-27 14:18 | 51.93060 | 6.05460 | 21259 ft | 448 kts | 102° |
| 2026-04-27 14:18 | 51.92401 | 6.10387 | 21257 ft | 448 kts | 103° |
| 2026-04-27 14:18 | 51.91683 | 6.15299 | 21251 ft | 448 kts | 104° |
| 2026-04-27 14:18 | 51.90959 | 6.20130 | 21248 ft | 448 kts | 104° |
| 2026-04-27 14:19 | 51.90235 | 6.25042 | 21248 ft | 448 kts | 104° |
| 2026-04-27 14:19 | 51.89530 | 6.29959 | 21243 ft | 449 kts | 103° |
| 2026-04-27 14:19 | 51.88841 | 6.34888 | 21238 ft | 449 kts | 103° |
| 2026-04-27 14:19 | 51.88161 | 6.39821 | 21238 ft | 449 kts | 103° |
| 2026-04-27 14:20 | 51.87480 | 6.44755 | 21239 ft | 449 kts | 103° |
| 2026-04-27 14:20 | 51.86796 | 6.49683 | 21238 ft | 449 kts | 103° |
| 2026-04-27 14:20 | 51.86105 | 6.54624 | 21240 ft | 450 kts | 103° |
| 2026-04-27 14:20 | 51.85422 | 6.59488 | 21240 ft | 450 kts | 103° |
| 2026-04-27 14:21 | 51.84726 | 6.64417 | 21236 ft | 450 kts | 103° |
| 2026-04-27 14:21 | 51.84029 | 6.69332 | 21238 ft | 450 kts | 104° |
| 2026-04-27 14:21 | 51.83329 | 6.74263 | 21235 ft | 449 kts | 104° |
| 2026-04-27 14:21 | 51.82638 | 6.79136 | 20969 ft | 439 kts | 103° |
| 2026-04-27 14:22 | 51.81957 | 6.83916 | 20462 ft | 434 kts | 104° |
| 2026-04-27 14:22 | 51.81277 | 6.88630 | 19950 ft | 430 kts | 104° |
| 2026-04-27 14:22 | 51.80596 | 6.93313 | 19438 ft | 426 kts | 104° |
| 2026-04-27 14:22 | 51.79921 | 6.97949 | 18942 ft | 422 kts | 104° |
| 2026-04-27 14:23 | 51.79252 | 7.02555 | 18432 ft | 419 kts | 103° |
| 2026-04-27 14:23 | 51.78598 | 7.07043 | 17905 ft | 415 kts | 103° |
| 2026-04-27 14:23 | 51.77939 | 7.11550 | 17396 ft | 410 kts | 104° |
| 2026-04-27 14:23 | 51.77288 | 7.16013 | 16868 ft | 406 kts | 103° |
| 2026-04-27 14:24 | 51.76644 | 7.20430 | 16372 ft | 402 kts | 104° |
| 2026-04-27 14:24 | 51.76005 | 7.24802 | 15886 ft | 398 kts | 103° |
| 2026-04-27 14:24 | 51.75385 | 7.29101 | 15395 ft | 394 kts | 103° |
| 2026-04-27 14:24 | 51.74596 | 7.33293 | 14914 ft | 388 kts | 116° |
| 2026-04-27 14:25 | 51.73080 | 7.36814 | 14472 ft | 380 kts | 137° |
| 2026-04-27 14:25 | 51.70954 | 7.39232 | 14021 ft | 371 kts | 158° |
| 2026-04-27 14:25 | 51.68534 | 7.40272 | 13497 ft | 363 kts | 178° |
| 2026-04-27 14:25 | 51.66028 | 7.40315 | 12913 ft | 359 kts | 183° |
| 2026-04-27 14:26 | 51.63550 | 7.40224 | 12361 ft | 357 kts | 184° |
| 2026-04-27 14:26 | 51.61075 | 7.40116 | 11798 ft | 354 kts | 183° |
| 2026-04-27 14:26 | 51.58621 | 7.39998 | 11261 ft | 352 kts | 184° |
| 2026-04-27 14:26 | 51.56180 | 7.39860 | 10716 ft | 349 kts | 186° |
| 2026-04-27 14:27 | 51.53892 | 7.38908 | 10491 ft | 333 kts | 208° |
| 2026-04-27 14:27 | 51.52120 | 7.36730 | 10364 ft | 311 kts | 232° |
| 2026-04-27 14:27 | 51.51067 | 7.33931 | 10187 ft | 287 kts | 245° |
| 2026-04-27 14:27 | 51.50239 | 7.31084 | 9636 ft | 279 kts | 246° |
| 2026-04-27 14:28 | 51.49339 | 7.28355 | 8995 ft | 276 kts | 232° |
| 2026-04-27 14:28 | 51.47860 | 7.26449 | 8368 ft | 274 kts | 208° |
| 2026-04-27 14:28 | 51.46125 | 7.25180 | 7660 ft | 274 kts | 204° |
| 2026-04-27 14:28 | 51.44376 | 7.23997 | 7005 ft | 273 kts | 203° |
| 2026-04-27 14:29 | 51.42632 | 7.22836 | 6333 ft | 270 kts | 199° |
| 2026-04-27 14:29 | 51.40780 | 7.22564 | 5787 ft | 269 kts | 169° |
| 2026-04-27 14:29 | 51.39113 | 7.23720 | 5402 ft | 267 kts | 141° |
| 2026-04-27 14:29 | 51.38073 | 7.26077 | 5219 ft | 262 kts | 105° |
| 2026-04-27 14:30 | 51.38094 | 7.28953 | 5081 ft | 259 kts | 70° |
| 2026-04-27 14:30 | 51.39127 | 7.31202 | 4785 ft | 252 kts | 35° |
| 2026-04-27 14:30 | 51.40603 | 7.32634 | 4459 ft | 242 kts | 30° |
| 2026-04-27 14:30 | 51.41964 | 7.34104 | 4189 ft | 232 kts | 44° |
| 2026-04-27 14:31 | 51.42942 | 7.36110 | 3905 ft | 225 kts | 58° |
| 2026-04-27 14:31 | 51.43713 | 7.38232 | 3623 ft | 215 kts | 60° |
| 2026-04-27 14:31 | 51.44419 | 7.40243 | 3335 ft | 201 kts | 60° |
| 2026-04-27 14:31 | 51.45076 | 7.42103 | 3111 ft | 187 kts | 59° |
| 2026-04-27 14:32 | 51.45701 | 7.43867 | 2837 ft | 178 kts | 60° |
| 2026-04-27 14:32 | 51.46294 | 7.45542 | 2579 ft | 165 kts | 59° |
| 2026-04-27 14:32 | 51.46836 | 7.47071 | 2400 ft | 150 kts | 58° |
| 2026-04-27 14:32 | 51.47331 | 7.48471 | 2186 ft | 138 kts | 59° |
| 2026-04-27 14:33 | 51.47793 | 7.49777 | 2009 ft | 132 kts | 58° |
| 2026-04-27 14:33 | 51.48242 | 7.51047 | 1822 ft | 130 kts | 59° |
| 2026-04-27 14:33 | 51.48687 | 7.52305 | 1662 ft | 130 kts | 58° |
| 2026-04-27 14:33 | 51.49131 | 7.53560 | 1474 ft | 128 kts | 59° |
| 2026-04-27 14:34 | 51.49568 | 7.54797 | 1298 ft | 130 kts | 59° |
| 2026-04-27 14:34 | 51.50016 | 7.56057 | 1124 ft | 131 kts | 60° |
| 2026-04-27 14:34 | 51.50464 | 7.57326 | 937 ft | 130 kts | 59° |
| 2026-04-27 14:34 | 51.50910 | 7.58587 | 756 ft | 129 kts | 60° |
| 2026-04-27 14:35 | 51.51354 | 7.59852 | 571 ft | 130 kts | 60° |
| 2026-04-27 14:35 | 51.51789 | 7.61097 | 424 ft | 122 kts | 60° |
| 2026-04-27 14:35 | 51.52208 | 7.62295 | 495 ft | 142 kts | 59° |
| 2026-04-27 14:35 | 51.52713 | 7.63755 | 1271 ft | 151 kts | 60° |
| 2026-04-27 14:36 | 51.53234 | 7.65246 | 2025 ft | 160 kts | 59° |
| 2026-04-27 14:36 | 51.53823 | 7.66899 | 2324 ft | 182 kts | 59° |
| 2026-04-27 14:36 | 51.54490 | 7.68758 | 2640 ft | 199 kts | 59° |
| 2026-04-27 14:36 | 51.55233 | 7.70688 | 2981 ft | 205 kts | 49° |
| 2026-04-27 14:37 | 51.56457 | 7.71745 | 3003 ft | 204 kts | 5° |
| 2026-04-27 14:37 | 51.57784 | 7.71071 | 3005 ft | 208 kts | 320° |
| 2026-04-27 14:37 | 51.58443 | 7.69023 | 3015 ft | 215 kts | 276° |
| 2026-04-27 14:37 | 51.58039 | 7.66772 | 3017 ft | 219 kts | 231° |
| 2026-04-27 14:38 | 51.56831 | 7.65335 | 3012 ft | 218 kts | 205° |
| 2026-04-27 14:38 | 51.55427 | 7.64397 | 3018 ft | 219 kts | 199° |
| 2026-04-27 14:38 | 51.54000 | 7.63538 | 3016 ft | 219 kts | 200° |
| 2026-04-27 14:38 | 51.52672 | 7.62355 | 3011 ft | 220 kts | 217° |
| 2026-04-27 14:39 | 51.51500 | 7.60776 | 3003 ft | 220 kts | 221° |
| 2026-04-27 14:39 | 51.50357 | 7.59149 | 3008 ft | 219 kts | 221° |
| 2026-04-27 14:39 | 51.49218 | 7.57513 | 3009 ft | 220 kts | 221° |
| 2026-04-27 14:39 | 51.48092 | 7.55899 | 3015 ft | 219 kts | 221° |
| 2026-04-27 14:40 | 51.46956 | 7.54278 | 3005 ft | 220 kts | 221° |
| 2026-04-27 14:40 | 51.45808 | 7.52650 | 3007 ft | 220 kts | 221° |
| 2026-04-27 14:40 | 51.44665 | 7.51026 | 3022 ft | 221 kts | 221° |
| 2026-04-27 14:40 | 51.43516 | 7.49391 | 3011 ft | 221 kts | 221° |
| 2026-04-27 14:41 | 51.42366 | 7.47750 | 3017 ft | 221 kts | 221° |
| 2026-04-27 14:41 | 51.41226 | 7.46117 | 2999 ft | 220 kts | 223° |
| 2026-04-27 14:41 | 51.40376 | 7.44123 | 2998 ft | 219 kts | 255° |
| 2026-04-27 14:41 | 51.40364 | 7.41755 | 3014 ft | 216 kts | 290° |
| 2026-04-27 14:42 | 51.41164 | 7.39876 | 3002 ft | 196 kts | 327° |
| 2026-04-27 14:42 | 51.42354 | 7.39165 | 3013 ft | 175 kts | 355° |
| 2026-04-27 14:42 | 51.43488 | 7.39346 | 2995 ft | 156 kts | 22° |
| 2026-04-27 14:42 | 51.44322 | 7.40223 | 3014 ft | 137 kts | 46° |
| 2026-04-27 14:43 | 51.44845 | 7.41466 | 3006 ft | 134 kts | 59° |
| 2026-04-27 14:43 | 51.45305 | 7.42760 | 2925 ft | 133 kts | 60° |
| 2026-04-27 14:43 | 51.45763 | 7.44048 | 2791 ft | 133 kts | 59° |
| 2026-04-27 14:43 | 51.46215 | 7.45321 | 2618 ft | 130 kts | 59° |
| 2026-04-27 14:44 | 51.46654 | 7.46557 | 2461 ft | 129 kts | 59° |
| 2026-04-27 14:44 | 51.47102 | 7.47823 | 2270 ft | 129 kts | 59° |
| 2026-04-27 14:44 | 51.47540 | 7.49060 | 2118 ft | 129 kts | 59° |
| 2026-04-27 14:44 | 51.47982 | 7.50310 | 1929 ft | 128 kts | 59° |
| 2026-04-27 14:45 | 51.48421 | 7.51551 | 1757 ft | 128 kts | 59° |
| 2026-04-27 14:45 | 51.48864 | 7.52804 | 1590 ft | 129 kts | 58° |
| 2026-04-27 14:45 | 51.49302 | 7.54044 | 1402 ft | 128 kts | 59° |
| 2026-04-27 14:45 | 51.49742 | 7.55293 | 1246 ft | 129 kts | 59° |
| 2026-04-27 14:46 | 51.50191 | 7.56553 | 1045 ft | 130 kts | 59° |
| 2026-04-27 14:46 | 51.50628 | 7.57797 | 862 ft | 130 kts | 59° |
| 2026-04-27 14:46 | 51.51069 | 7.59052 | 685 ft | 130 kts | 59° |
| 2026-04-27 14:46 | 51.51515 | 7.60315 | 485 ft | 130 kts | 59° |
| 2026-04-27 14:47 | 51.51935 | 7.61497 | 417 ft | 107 kts | 59° |
| 2026-04-27 14:47 | 51.52173 | 7.62179 | 411 ft | 51 kts | 61° |
| 2026-04-27 14:47 | 51.52308 | 7.62570 | 408 ft | 22 kts | 60° |
| 2026-04-27 14:47 | 51.52297 | 7.62732 | 406 ft | 17 kts | 137° |
| 2026-04-27 14:48 | 51.52236 | 7.62774 | 407 ft | 8 kts | 168° |
| 2026-04-27 14:48 | 51.52161 | 7.62714 | 408 ft | 5 kts | 234° |
| 2026-04-27 14:48 | 51.52129 | 7.62608 | 409 ft | 16 kts | 241° |
| 2026-04-27 14:49 | 51.52080 | 7.62467 | 410 ft | 13 kts | 240° |
| 2026-04-27 14:49 | 51.52037 | 7.62348 | 411 ft | 11 kts | 240° |
| 2026-04-27 14:49 | 51.52002 | 7.62248 | 412 ft | 9 kts | 240° |
| 2026-04-27 14:49 | 51.51964 | 7.62141 | 411 ft | 16 kts | 241° |
| 2026-04-27 14:50 | 51.51909 | 7.61984 | 414 ft | 15 kts | 240° |
| 2026-04-27 14:50 | 51.51860 | 7.61846 | 410 ft | 13 kts | 240° |
| 2026-04-27 14:50 | 51.51819 | 7.61729 | 410 ft | 11 kts | 240° |
| 2026-04-27 14:50 | 51.51772 | 7.61592 | 417 ft | 16 kts | 241° |
| 2026-04-27 14:51 | 51.51721 | 7.61451 | 414 ft | 14 kts | 240° |
| 2026-04-27 14:51 | 51.51678 | 7.61328 | 418 ft | 12 kts | 241° |
| 2026-04-27 14:51 | 51.51642 | 7.61225 | 418 ft | 10 kts | 240° |
| 2026-04-27 14:51 | 51.51621 | 7.61166 | 415 ft | 8 kts | 240° |
| 2026-04-27 14:52 | 51.51586 | 7.61070 | 418 ft | 8 kts | 232° |
| 2026-04-27 14:52 | 51.51530 | 7.61060 | 424 ft | 6 kts | 180° |
| 2026-04-27 14:52 | 51.51496 | 7.61027 | 419 ft | 5 kts | 213° |
| 2026-04-27 14:52 | 51.51463 | 7.61040 | 418 ft | 6 kts | 148° |
| 2026-04-27 14:53 | 51.51446 | 7.61060 | 424 ft | 0 kts | 141° |
| 2026-04-27 14:53 | 51.51443 | 7.61064 | 424 ft | 0 kts | 141° |